createdAt,value
2023-02-19T00:01:13.461Z,95215.88
2023-02-19T00:03:40.942Z,95218.13
2023-02-19T00:06:10.818Z,95225.88
2023-02-19T00:08:39.813Z,95215.38
2023-02-19T00:11:15.504Z,95203.63
2023-02-19T00:13:45.490Z,95203.22
2023-02-19T00:16:14.950Z,95184.31
2023-02-19T00:18:43.156Z,95185.50
2023-02-19T00:21:10.775Z,95194.31
2023-02-19T00:23:38.683Z,95199.84
2023-02-19T00:26:17.684Z,95180.94
2023-02-19T00:28:47.274Z,95191.56
2023-02-19T00:31:33.192Z,95185.19
2023-02-19T00:34:05.651Z,95170.81
2023-02-19T00:36:36.510Z,95168.00
2023-02-19T00:39:05.087Z,95167.88
2023-02-19T00:41:32.286Z,95165.22
2023-02-19T00:44:07.847Z,95161.53
2023-02-19T00:46:40.458Z,95168.34
2023-02-19T00:49:12.180Z,95175.59
2023-02-19T00:51:39.481Z,95161.47
2023-02-19T00:54:06.672Z,95148.28
2023-02-19T00:56:33.613Z,95154.50
2023-02-19T00:59:00.982Z,95151.97
2023-02-19T01:01:27.810Z,95122.00
2023-02-19T01:03:54.981Z,95124.94
2023-02-19T01:06:22.262Z,95138.75
2023-02-19T01:08:49.424Z,95143.53
2023-02-19T01:11:17.128Z,95142.69
2023-02-19T01:13:44.600Z,95127.47
2023-02-19T01:16:11.547Z,95123.19
2023-02-19T01:18:38.717Z,95122.56
2023-02-19T01:21:12.578Z,95103.31
2023-02-19T01:23:40.251Z,95111.69
2023-02-19T01:26:13.899Z,95112.78
2023-02-19T01:28:40.871Z,95099.38
2023-02-19T01:31:13.926Z,95087.03
2023-02-19T01:33:45.263Z,95117.16
2023-02-19T01:36:11.994Z,95079.25
2023-02-19T01:38:39.611Z,95097.03
2023-02-19T01:41:08.813Z,95090.81
2023-02-19T01:44:01.489Z,95102.38
2023-02-19T01:46:30.874Z,95083.09
2023-02-19T01:49:00.655Z,95071.72
2023-02-19T01:51:28.256Z,95083.47
2023-02-19T01:53:59.536Z,95089.16
2023-02-19T01:56:27.834Z,95084.34
2023-02-19T01:58:55.415Z,95065.50
2023-02-19T02:01:22.163Z,95071.03
2023-02-19T02:03:50.690Z,95079.34
2023-02-19T02:06:23.511Z,95089.91
2023-02-19T02:09:11.909Z,95078.88
2023-02-19T02:11:42.896Z,95057.19
2023-02-19T02:14:10.203Z,95089.19
2023-02-19T02:16:45.748Z,95036.16
2023-02-19T02:19:15.610Z,95049.31
2023-02-19T02:21:54.201Z,95051.09
2023-02-19T02:24:43.214Z,95077.06
2023-02-19T02:27:25.931Z,95069.19
2023-02-19T02:30:15.782Z,95050.69
2023-02-19T02:32:59.209Z,95049.72
2023-02-19T02:35:34.627Z,95058.22
2023-02-19T02:38:04.952Z,95061.06
2023-02-19T02:40:32.433Z,95054.91
2023-02-19T02:43:01.189Z,95070.34
2023-02-19T02:45:37.423Z,95067.25
2023-02-19T02:48:41.264Z,95065.34
2023-02-19T02:51:25.711Z,95060.78
2023-02-19T02:54:38.480Z,95028.72
2023-02-19T02:57:14.761Z,95043.88
2023-02-19T02:59:56.799Z,95006.78
2023-02-19T03:02:31.325Z,94991.53
2023-02-19T03:05:41.509Z,94978.31
2023-02-19T03:08:16.871Z,95009.41
2023-02-19T03:10:47.465Z,94996.44
2023-02-19T03:13:46.233Z,94992.81
2023-02-19T03:16:47.471Z,95005.06
2023-02-19T03:19:20.791Z,94992.88
2023-02-19T03:22:01.556Z,94982.22
2023-02-19T03:24:54.775Z,94979.84
2023-02-19T03:27:25.901Z,94984.47
2023-02-19T03:29:59.151Z,94989.53
2023-02-19T03:32:33.475Z,94967.56
2023-02-19T03:35:21.038Z,94996.25
2023-02-19T03:38:09.860Z,94998.03
2023-02-19T03:40:52.909Z,95000.91
2023-02-19T03:43:41.634Z,95001.56
2023-02-19T03:47:07.717Z,95001.16
2023-02-19T03:50:00.777Z,95013.44
2023-02-19T03:52:40.259Z,95016.19
2023-02-19T03:55:18.089Z,95005.69
2023-02-19T03:57:56.384Z,95012.53
2023-02-19T04:00:37.128Z,95032.47
2023-02-19T04:03:03.832Z,94996.78
2023-02-19T04:05:35.064Z,94994.09
2023-02-19T04:08:12.538Z,95007.00
2023-02-19T04:10:49.477Z,94989.78
2023-02-19T04:13:30.386Z,94996.31
2023-02-19T04:16:03.339Z,94975.59
2023-02-19T04:18:36.339Z,95004.47
2023-02-19T04:21:04.700Z,95013.34
2023-02-19T04:23:37.521Z,94976.41
2023-02-19T04:26:05.370Z,94980.31
2023-02-19T04:28:32.093Z,94971.22
2023-02-19T04:30:58.775Z,94955.22
2023-02-19T04:33:26.464Z,94969.31
2023-02-19T04:35:53.194Z,94963.75
2023-02-19T04:38:20.010Z,94932.25
2023-02-19T04:40:47.234Z,94919.47
2023-02-19T04:43:14.142Z,94928.22
2023-02-19T04:45:41.735Z,94892.16
2023-02-19T04:48:09.108Z,94887.69
2023-02-19T04:50:39.376Z,94863.00
2023-02-19T04:53:07.315Z,94870.25
2023-02-19T04:55:38.449Z,94876.19
2023-02-19T04:58:05.385Z,94922.00
2023-02-19T05:00:33.955Z,94898.13
2023-02-19T05:03:01.519Z,94934.69
2023-02-19T05:05:28.672Z,94911.44
2023-02-19T05:07:55.660Z,94940.09
2023-02-19T05:10:22.428Z,94917.25
2023-02-19T05:12:49.182Z,94919.31
2023-02-19T05:15:16.180Z,94947.25
2023-02-19T05:17:42.981Z,94945.16
2023-02-19T05:20:09.884Z,94916.88
2023-02-19T05:22:36.796Z,94936.09
2023-02-19T05:25:04.470Z,94935.69
2023-02-19T05:27:32.234Z,94960.91
2023-02-19T05:29:59.176Z,94951.41
2023-02-19T05:32:26.688Z,94938.97
2023-02-19T05:34:53.390Z,94945.75
2023-02-19T05:37:20.145Z,94958.84
2023-02-19T05:39:48.067Z,94932.41
2023-02-19T05:42:15.544Z,94969.91
2023-02-19T05:44:42.843Z,94976.75
2023-02-19T05:47:09.755Z,94948.72
2023-02-19T05:49:36.523Z,94947.94
2023-02-19T05:52:03.973Z,94931.94
2023-02-19T05:54:31.713Z,94987.81
2023-02-19T05:56:58.553Z,94943.28
2023-02-19T05:59:27.125Z,94976.91
2023-02-19T06:01:55.601Z,94971.06
2023-02-19T06:04:23.529Z,94993.47
2023-02-19T06:06:50.698Z,94999.78
2023-02-19T06:09:17.930Z,95003.81
2023-02-19T06:11:45.382Z,95013.06
2023-02-19T06:14:13.810Z,95001.38
2023-02-19T06:16:40.960Z,94986.72
2023-02-19T06:19:08.061Z,94999.59
2023-02-19T06:21:34.824Z,94981.94
2023-02-19T06:24:06.669Z,95011.81
2023-02-19T06:26:34.524Z,95004.38
2023-02-19T06:29:01.584Z,95048.56
2023-02-19T06:31:28.459Z,95047.47
2023-02-19T06:33:55.397Z,95009.34
2023-02-19T06:36:23.250Z,95016.41
2023-02-19T06:38:51.286Z,95026.81
2023-02-19T06:41:19.394Z,95033.84
2023-02-19T06:43:46.819Z,95065.25
2023-02-19T06:46:14.498Z,95036.75
2023-02-19T06:48:42.772Z,95031.22
2023-02-19T06:51:13.260Z,95054.16
2023-02-19T06:53:40.270Z,95061.47
2023-02-19T06:56:25.153Z,95041.38
2023-02-19T06:58:53.571Z,95067.47
2023-02-19T07:01:20.878Z,95069.78
2023-02-19T07:03:47.664Z,95056.75
2023-02-19T07:06:14.872Z,95061.28
2023-02-19T07:08:41.752Z,95089.53
2023-02-19T07:11:08.612Z,95067.63
2023-02-19T07:13:35.429Z,95067.31
2023-02-19T07:16:05.396Z,95092.72
2023-02-19T07:18:32.350Z,95093.59
2023-02-19T07:21:07.005Z,95093.25
2023-02-19T07:23:34.698Z,95125.16
2023-02-19T07:26:01.798Z,95122.75
2023-02-19T07:28:28.584Z,95113.78
2023-02-19T07:31:01.227Z,95105.94
2023-02-19T07:33:28.360Z,95126.69
2023-02-19T07:35:55.126Z,95112.97
2023-02-19T07:38:23.529Z,95127.38
2023-02-19T07:40:54.912Z,95144.03
2023-02-19T07:43:23.242Z,95120.22
2023-02-19T07:45:51.026Z,95152.38
2023-02-19T07:48:18.786Z,95115.81
2023-02-19T07:50:52.445Z,95110.34
2023-02-19T07:53:20.033Z,95147.97
2023-02-19T07:55:46.837Z,95144.63
2023-02-19T07:58:14.361Z,95148.47
2023-02-19T08:00:41.172Z,95171.50
2023-02-19T08:03:08.072Z,95138.34
2023-02-19T08:05:39.823Z,95174.06
2023-02-19T08:08:11.974Z,95139.34
2023-02-19T08:10:58.317Z,95168.94
2023-02-19T08:13:26.597Z,95167.06
2023-02-19T08:16:01.712Z,95172.44
2023-02-19T08:18:35.114Z,95194.34
2023-02-19T08:21:01.893Z,95177.69
2023-02-19T08:23:29.257Z,95199.19
2023-02-19T08:26:00.250Z,95182.84
2023-02-19T08:28:27.712Z,95171.00
2023-02-19T08:31:00.338Z,95170.09
2023-02-19T08:33:28.147Z,95178.97
2023-02-19T08:35:55.320Z,95175.50
2023-02-19T08:38:22.709Z,95182.22
2023-02-19T08:40:49.561Z,95190.03
2023-02-19T08:43:19.369Z,95184.81
2023-02-19T08:45:47.863Z,95194.28
2023-02-19T08:48:14.828Z,95201.72
2023-02-19T08:50:41.581Z,95203.84
2023-02-19T08:53:08.530Z,95203.09
2023-02-19T08:55:38.386Z,95191.38
2023-02-19T08:58:05.593Z,95213.25
2023-02-19T09:00:32.623Z,95210.34
2023-02-19T09:02:59.588Z,95210.84
2023-02-19T09:05:26.348Z,95190.16
2023-02-19T09:07:53.227Z,95190.03
2023-02-19T09:10:19.955Z,95214.84
2023-02-19T09:12:47.045Z,95207.81
2023-02-19T09:15:14.578Z,95222.66
2023-02-19T09:17:41.338Z,95215.63
2023-02-19T09:20:09.209Z,95223.25
2023-02-19T09:22:36.783Z,95215.38
2023-02-19T09:25:03.711Z,95250.69
2023-02-19T09:27:32.310Z,95256.47
2023-02-19T09:29:59.468Z,95233.78
2023-02-19T09:32:26.213Z,95234.41
2023-02-19T09:34:52.947Z,95226.88
2023-02-19T09:37:20.059Z,95263.59
2023-02-19T09:39:46.798Z,95261.44
2023-02-19T09:42:18.591Z,95262.19
2023-02-19T09:44:50.154Z,95235.25
2023-02-19T09:47:23.353Z,95252.53
2023-02-19T09:49:55.790Z,95239.72
2023-02-19T09:52:32.590Z,95199.88
2023-02-19T09:55:03.533Z,95221.13
2023-02-19T09:57:33.697Z,95218.59
2023-02-19T10:00:10.384Z,95220.84
2023-02-19T10:02:37.889Z,95224.97
2023-02-19T10:05:14.060Z,95232.06
2023-02-19T10:07:44.893Z,95208.13
2023-02-19T10:10:14.837Z,95230.41
2023-02-19T10:12:47.773Z,95231.38
2023-02-19T10:15:25.530Z,95225.81
2023-02-19T10:17:52.287Z,95243.56
2023-02-19T10:20:24.739Z,95246.44
2023-02-19T10:23:07.041Z,95226.59
2023-02-19T10:25:35.401Z,95258.72
2023-02-19T10:28:02.859Z,95241.59
2023-02-19T10:30:35.819Z,95247.38
2023-02-19T10:33:09.210Z,95285.94
2023-02-19T10:35:39.150Z,95261.13
2023-02-19T10:38:09.922Z,95261.63
2023-02-19T10:40:47.353Z,95286.06
2023-02-19T10:43:31.279Z,95267.00
2023-02-19T10:46:00.122Z,95292.97
2023-02-19T10:48:35.190Z,95282.56
2023-02-19T10:51:07.273Z,95316.66
2023-02-19T10:53:41.770Z,95308.94
2023-02-19T10:56:16.245Z,95285.63
2023-02-19T10:58:45.096Z,95303.84
2023-02-19T11:01:12.326Z,95288.94
2023-02-19T11:03:39.381Z,95282.19
2023-02-19T11:06:09.375Z,95317.28
2023-02-19T11:08:51.877Z,95300.81
2023-02-19T11:11:25.713Z,95291.34
2023-02-19T11:13:54.604Z,95282.41
2023-02-19T11:16:21.909Z,95289.31
2023-02-19T11:18:57.307Z,95304.88
2023-02-19T11:21:33.612Z,95292.88
2023-02-19T11:24:06.187Z,95275.72
2023-02-19T11:26:38.280Z,95295.22
2023-02-19T11:29:37.630Z,95307.38
2023-02-19T11:32:29.924Z,95289.25
2023-02-19T11:35:17.843Z,95281.94
2023-02-19T11:37:58.392Z,95274.56
2023-02-19T11:40:44.601Z,95284.22
2023-02-19T11:43:14.474Z,95287.41
2023-02-19T11:45:57.644Z,95293.44
2023-02-19T11:48:36.388Z,95301.59
2023-02-19T11:51:13.716Z,95269.56
2023-02-19T11:53:49.763Z,95286.91
2023-02-19T11:56:26.147Z,95297.38
2023-02-19T11:59:01.427Z,95309.50
2023-02-19T12:01:39.371Z,95314.09
2023-02-19T12:04:09.122Z,95304.19
2023-02-19T12:06:45.035Z,95313.53
2023-02-19T12:09:30.124Z,95294.56
2023-02-19T12:12:26.830Z,95306.22
2023-02-19T12:15:22.890Z,95267.91
2023-02-19T12:18:14.837Z,95275.31
2023-02-19T12:21:23.919Z,95270.19
2023-02-19T12:24:11.862Z,95260.22
2023-02-19T12:27:06.659Z,95302.56
2023-02-19T12:30:03.021Z,95277.88
2023-02-19T12:33:03.658Z,95286.19
2023-02-19T12:35:43.072Z,95298.00
2023-02-19T12:38:25.206Z,95276.50
2023-02-19T12:41:20.423Z,95283.94
2023-02-19T12:43:55.433Z,95287.78
2023-02-19T12:46:33.086Z,95315.63
2023-02-19T12:49:24.064Z,95318.38
2023-02-19T12:51:58.601Z,95285.78
2023-02-19T12:54:34.494Z,95290.13
2023-02-19T12:57:15.983Z,95288.38
2023-02-19T12:59:50.521Z,95302.38
2023-02-19T13:02:45.408Z,95298.72
2023-02-19T13:05:21.152Z,95293.34
2023-02-19T13:07:59.376Z,95334.41
2023-02-19T13:10:42.152Z,95342.53
2023-02-19T13:13:25.544Z,95334.69
2023-02-19T13:16:02.614Z,95314.75
2023-02-19T13:18:37.200Z,95319.13
2023-02-19T13:21:06.340Z,95339.91
2023-02-19T13:24:03.232Z,95348.00
2023-02-19T13:26:56.413Z,95361.22
2023-02-19T13:29:32.323Z,95350.06
2023-02-19T13:32:30.402Z,95352.22
2023-02-19T13:35:19.010Z,95364.13
2023-02-19T13:37:46.940Z,95344.66
2023-02-19T13:40:37.382Z,95365.97
2023-02-19T13:43:23.526Z,95346.38
2023-02-19T13:45:59.239Z,95320.56
2023-02-19T13:48:35.308Z,95329.50
2023-02-19T13:51:23.511Z,95333.72
2023-02-19T13:53:58.344Z,95339.00
2023-02-19T13:56:34.290Z,95349.94
2023-02-19T13:59:23.620Z,95332.25
2023-02-19T14:01:53.670Z,95352.13
2023-02-19T14:04:23.734Z,95350.91
2023-02-19T14:07:05.987Z,95358.06
2023-02-19T14:09:43.794Z,95381.50
2023-02-19T14:12:10.479Z,95373.88
2023-02-19T14:14:40.067Z,95367.41
2023-02-19T14:17:09.892Z,95378.72
2023-02-19T14:19:42.774Z,95394.31
2023-02-19T14:22:50.269Z,95410.06
2023-02-19T14:25:32.087Z,95384.63
2023-02-19T14:28:11.601Z,95400.50
2023-02-19T14:30:47.477Z,95413.41
2023-02-19T14:33:17.684Z,95375.56
2023-02-19T14:35:47.417Z,95385.97
2023-02-19T14:38:28.624Z,95406.66
2023-02-19T14:40:55.888Z,95401.25
2023-02-19T14:43:25.302Z,95413.66
2023-02-19T14:45:59.065Z,95384.88
2023-02-19T14:48:39.716Z,95398.44
2023-02-19T14:51:24.241Z,95394.91
2023-02-19T14:53:52.977Z,95395.16
2023-02-19T14:56:26.728Z,95401.56
2023-02-19T14:59:20.770Z,95381.19
2023-02-19T15:01:57.260Z,95391.63
2023-02-19T15:04:31.569Z,95382.34
2023-02-19T15:07:02.560Z,95402.59
2023-02-19T15:09:36.766Z,95398.25
2023-02-19T15:12:04.202Z,95415.25
2023-02-19T15:14:32.574Z,95422.69
2023-02-19T15:17:05.205Z,95431.19
2023-02-19T15:19:36.748Z,95421.66
2023-02-19T15:22:03.662Z,95404.34
2023-02-19T15:24:30.782Z,95412.84
2023-02-19T15:26:57.977Z,95402.47
2023-02-19T15:29:27.611Z,95418.50
2023-02-19T15:31:59.843Z,95424.75
2023-02-19T15:34:32.028Z,95432.56
2023-02-19T15:37:02.965Z,95429.09
2023-02-19T15:39:41.404Z,95420.13
2023-02-19T15:42:17.176Z,95435.91
2023-02-19T15:44:59.558Z,95451.00
2023-02-19T15:47:34.010Z,95455.56
2023-02-19T15:50:17.243Z,95423.50
2023-02-19T15:53:10.145Z,95466.91
2023-02-19T15:55:40.169Z,95463.03
2023-02-19T15:58:20.159Z,95457.72
2023-02-19T16:00:55.185Z,95465.59
2023-02-19T16:03:30.079Z,95456.97
2023-02-19T16:06:00.455Z,95454.03
2023-02-19T16:08:35.968Z,95462.72
2023-02-19T16:11:27.675Z,95459.75
2023-02-19T16:14:19.238Z,95438.75
2023-02-19T16:16:48.917Z,95448.16
2023-02-19T16:19:22.015Z,95447.59
2023-02-19T16:21:49.476Z,95432.97
2023-02-19T16:24:28.070Z,95450.81
2023-02-19T16:26:56.323Z,95455.06
2023-02-19T16:29:25.522Z,95471.28
2023-02-19T16:31:59.482Z,95454.78
2023-02-19T16:34:44.256Z,95458.88
2023-02-19T16:37:59.564Z,95461.19
2023-02-19T16:40:35.312Z,95476.91
2023-02-19T16:43:05.265Z,95466.22
2023-02-19T16:45:32.209Z,95476.78
2023-02-19T16:47:59.232Z,95502.25
2023-02-19T16:50:26.967Z,95481.34
2023-02-19T16:52:56.797Z,95483.88
2023-02-19T16:55:24.344Z,95500.28
2023-02-19T16:57:51.735Z,95526.78
2023-02-19T17:00:32.699Z,95518.47
2023-02-19T17:03:03.758Z,95491.88
2023-02-19T17:05:32.777Z,95480.84
2023-02-19T17:07:59.667Z,95477.00
2023-02-19T17:10:27.807Z,95472.72
2023-02-19T17:12:56.121Z,95474.63
2023-02-19T17:15:23.565Z,95491.50
2023-02-19T17:17:50.468Z,95485.81
2023-02-19T17:20:24.596Z,95475.72
2023-02-19T17:22:51.339Z,95499.13
2023-02-19T17:25:20.082Z,95475.16
2023-02-19T17:27:46.876Z,95498.94
2023-02-19T17:30:19.791Z,95495.19
2023-02-19T17:32:46.670Z,95517.69
2023-02-19T17:35:13.495Z,95514.59
2023-02-19T17:37:41.253Z,95514.13
2023-02-19T17:40:33.270Z,95526.25
2023-02-19T17:43:01.205Z,95524.06
2023-02-19T17:45:28.495Z,95502.53
2023-02-19T17:47:55.893Z,95508.97
2023-02-19T17:50:26.644Z,95514.09
2023-02-19T17:52:53.929Z,95511.03
2023-02-19T17:55:20.795Z,95533.13
2023-02-19T17:57:49.654Z,95510.53
2023-02-19T18:00:36.377Z,95506.00
2023-02-19T18:03:04.204Z,95513.44
2023-02-19T18:05:31.460Z,95522.97
2023-02-19T18:07:58.144Z,95516.63
2023-02-19T18:10:25.403Z,95542.50
2023-02-19T18:12:52.623Z,95536.31
2023-02-19T18:15:26.898Z,95559.22
2023-02-19T18:17:55.112Z,95573.75
2023-02-19T18:20:27.827Z,95567.72
2023-02-19T18:22:56.244Z,95572.88
2023-02-19T18:25:23.663Z,95572.78
2023-02-19T18:27:50.930Z,95558.81
2023-02-19T18:30:19.883Z,95536.81
2023-02-19T18:32:48.784Z,95569.88
2023-02-19T18:35:17.293Z,95592.84
2023-02-19T18:37:44.508Z,95596.25
2023-02-19T18:40:12.506Z,95595.59
2023-02-19T18:42:40.453Z,95588.75
2023-02-19T18:45:07.983Z,95597.81
2023-02-19T18:47:35.229Z,95592.88
2023-02-19T18:50:02.030Z,95601.13
2023-02-19T18:52:28.772Z,95613.22
2023-02-19T18:54:57.481Z,95588.47
2023-02-19T18:57:26.611Z,95609.91
2023-02-19T18:59:54.221Z,95620.50
2023-02-19T19:02:21.141Z,95638.69
2023-02-19T19:04:53.169Z,95652.25
2023-02-19T19:07:21.152Z,95628.31
2023-02-19T19:09:48.949Z,95632.38
2023-02-19T19:12:16.602Z,95615.94
2023-02-19T19:14:45.834Z,95626.34
2023-02-19T19:17:12.828Z,95653.63
2023-02-19T19:19:41.843Z,95647.53
2023-02-19T19:22:08.559Z,95650.97
2023-02-19T19:24:35.798Z,95643.06
2023-02-19T19:27:02.953Z,95633.03
2023-02-19T19:29:29.768Z,95667.16
2023-02-19T19:31:57.164Z,95648.72
2023-02-19T19:34:24.479Z,95644.63
2023-02-19T19:36:51.315Z,95634.16
2023-02-19T19:39:18.056Z,95644.59
2023-02-19T19:41:44.767Z,95632.72
2023-02-19T19:44:12.430Z,95624.81
2023-02-19T19:46:44.713Z,95653.31
2023-02-19T19:49:16.698Z,95634.41
2023-02-19T19:51:43.833Z,95637.78
2023-02-19T19:54:11.542Z,95634.28
2023-02-19T19:56:47.912Z,95623.28
2023-02-19T19:59:16.417Z,95634.78
2023-02-19T20:01:52.298Z,95623.69
2023-02-19T20:04:21.580Z,95649.13
2023-02-19T20:06:49.047Z,95629.72
2023-02-19T20:09:18.218Z,95660.00
2023-02-19T20:11:50.674Z,95643.22
2023-02-19T20:14:19.779Z,95648.81
2023-02-19T20:16:47.689Z,95636.09
2023-02-19T20:19:16.279Z,95644.25
2023-02-19T20:21:51.183Z,95677.28
2023-02-19T20:24:26.470Z,95660.75
2023-02-19T20:26:58.560Z,95656.06
2023-02-19T20:29:28.052Z,95662.13
2023-02-19T20:31:56.760Z,95684.78
2023-02-19T20:34:23.615Z,95663.16
2023-02-19T20:36:51.366Z,95674.28
2023-02-19T20:39:20.336Z,95678.25
2023-02-19T20:41:52.253Z,95676.03
2023-02-19T20:44:19.724Z,95693.03
2023-02-19T20:46:49.089Z,95692.06
2023-02-19T20:49:17.776Z,95697.75
2023-02-19T20:51:48.791Z,95708.44
2023-02-19T20:54:17.674Z,95680.81
2023-02-19T20:56:49.638Z,95687.41
2023-02-19T20:59:18.759Z,95702.78
2023-02-19T21:01:45.599Z,95718.38
2023-02-19T21:04:13.591Z,95701.75
2023-02-19T21:06:40.674Z,95706.75
2023-02-19T21:09:07.947Z,95701.94
2023-02-19T21:11:34.831Z,95725.16
2023-02-19T21:14:02.229Z,95718.66
2023-02-19T21:16:30.776Z,95734.63
2023-02-19T21:18:58.688Z,95734.53
2023-02-19T21:21:26.996Z,95714.44
2023-02-19T21:23:56.274Z,95734.78
2023-02-19T21:26:24.618Z,95731.38
2023-02-19T21:28:53.710Z,95751.97
2023-02-19T21:31:22.430Z,95748.16
2023-02-19T21:33:50.150Z,95757.16
2023-02-19T21:36:18.603Z,95753.66
2023-02-19T21:38:45.302Z,95730.91
2023-02-19T21:41:12.417Z,95728.91
2023-02-19T21:43:39.256Z,95749.16
2023-02-19T21:46:08.127Z,95717.09
2023-02-19T21:48:36.916Z,95718.94
2023-02-19T21:51:03.952Z,95724.41
2023-02-19T21:53:30.612Z,95724.13
2023-02-19T21:55:59.140Z,95732.09
2023-02-19T21:58:26.737Z,95714.91
2023-02-19T22:00:54.370Z,95712.06
2023-02-19T22:03:22.489Z,95716.56
2023-02-19T22:05:49.264Z,95741.91
2023-02-19T22:08:17.477Z,95697.81
2023-02-19T22:10:44.460Z,95696.06
2023-02-19T22:13:11.567Z,95710.63
2023-02-19T22:15:38.371Z,95685.22
2023-02-19T22:18:05.612Z,95694.81
2023-02-19T22:20:34.706Z,95689.41
2023-02-19T22:23:01.743Z,95704.34
2023-02-19T22:25:28.786Z,95712.41
2023-02-19T22:27:55.518Z,95715.91
2023-02-19T22:30:22.555Z,95713.53
2023-02-19T22:32:49.270Z,95728.13
2023-02-19T22:35:16.152Z,95728.56
2023-02-19T22:37:43.084Z,95734.00
2023-02-19T22:40:10.222Z,95755.47
2023-02-19T22:42:37.795Z,95712.97
2023-02-19T22:45:06.600Z,95717.88
2023-02-19T22:47:33.340Z,95706.22
2023-02-19T22:50:00.095Z,95702.41
2023-02-19T22:52:28.159Z,95714.47
2023-02-19T22:54:56.443Z,95720.00
2023-02-19T22:57:23.256Z,95738.41
2023-02-19T22:59:50.147Z,95704.41
2023-02-19T23:02:17.195Z,95731.69
2023-02-19T23:04:44.859Z,95719.41
2023-02-19T23:07:13.111Z,95720.06
2023-02-19T23:09:39.857Z,95725.88
2023-02-19T23:12:11.614Z,95755.78
2023-02-19T23:14:38.458Z,95737.94
2023-02-19T23:17:05.544Z,95737.56
2023-02-19T23:19:33.029Z,95734.19
2023-02-19T23:21:59.826Z,95754.97
2023-02-19T23:24:26.920Z,95757.38
2023-02-19T23:26:54.042Z,95745.22
2023-02-19T23:29:26.249Z,95752.81
2023-02-19T23:31:55.089Z,95752.09
2023-02-19T23:34:22.975Z,95744.03
2023-02-19T23:36:50.552Z,95736.22
2023-02-19T23:39:19.905Z,95756.53
2023-02-19T23:41:48.554Z,95758.69
2023-02-19T23:44:16.258Z,95745.09
2023-02-19T23:46:44.774Z,95752.88
2023-02-19T23:49:12.416Z,95764.56
2023-02-19T23:51:39.276Z,95770.81
2023-02-19T23:54:06.116Z,95789.44
2023-02-19T23:56:33.301Z,95786.34
2023-02-19T23:59:00.217Z,95772.84
